sensor_id;sensor_type;location;lat;lon;timestamp;temperature;humidity
11838;DHT22;5978;51.020;6.764;2023-06-14T00:02:15;19.80;99.90
11838;DHT22;5978;51.020;6.764;2023-06-14T00:04:41;19.90;99.90
11838;DHT22;5978;51.020;6.764;2023-06-14T00:07:07;19.80;99.90
11838;DHT22;5978;51.020;6.764;2023-06-14T00:09:34;19.70;99.90
11838;DHT22;5978;51.020;6.764;2023-06-14T00:12:00;19.60;99.90
11838;DHT22;5978;51.020;6.764;2023-06-14T00:14:26;19.60;99.90
11838;DHT22;5978;51.020;6.764;2023-06-14T00:16:52;19.50;99.90
11838;DHT22;5978;51.020;6.764;2023-06-14T00:19:24;19.60;99.90
11838;DHT22;5978;51.020;6.764;2023-06-14T00:21:50;19.50;99.90
11838;DHT22;5978;51.020;6.764;2023-06-14T00:24:17;19.50;99.90
11838;DHT22;5978;51.020;6.764;2023-06-14T00:26:43;19.50;99.90
11838;DHT22;5978;51.020;6.764;2023-06-14T00:29:08;19.50;99.90
11838;DHT22;5978;51.020;6.764;2023-06-14T00:31:34;19.40;99.90
11838;DHT22;5978;51.020;6.764;2023-06-14T00:34:00;19.30;99.90
11838;DHT22;5978;51.020;6.764;2023-06-14T00:36:26;19.30;99.90
11838;DHT22;5978;51.020;6.764;2023-06-14T00:38:51;19.20;99.90
11838;DHT22;5978;51.020;6.764;2023-06-14T00:41:17;19.20;99.90
11838;DHT22;5978;51.020;6.764;2023-06-14T00:43:42;19.20;99.90
11838;DHT22;5978;51.020;6.764;2023-06-14T00:46:08;19.10;99.90
11838;DHT22;5978;51.020;6.764;2023-06-14T00:48:35;19.00;99.90
11838;DHT22;5978;51.020;6.764;2023-06-14T00:51:02;19.00;99.90
11838;DHT22;5978;51.020;6.764;2023-06-14T00:53:30;19.00;99.90
11838;DHT22;5978;51.020;6.764;2023-06-14T00:55:59;19.00;99.90
11838;DHT22;5978;51.020;6.764;2023-06-14T00:58:26;18.90;99.90
11838;DHT22;5978;51.020;6.764;2023-06-14T01:00:52;18.90;99.90
11838;DHT22;5978;51.020;6.764;2023-06-14T01:03:17;18.80;99.90
11838;DHT22;5978;51.020;6.764;2023-06-14T01:05:48;18.80;99.90
11838;DHT22;5978;51.020;6.764;2023-06-14T01:11:37;18.60;99.90
11838;DHT22;5978;51.020;6.764;2023-06-14T01:14:07;18.50;99.90
11838;DHT22;5978;51.020;6.764;2023-06-14T01:16:35;18.50;99.90
11838;DHT22;5978;51.020;6.764;2023-06-14T01:19:01;18.50;99.90
11838;DHT22;5978;51.020;6.764;2023-06-14T01:21:27;18.50;99.90
11838;DHT22;5978;51.020;6.764;2023-06-14T01:23:54;18.40;99.90
11838;DHT22;5978;51.020;6.764;2023-06-14T01:26:22;18.40;99.90
11838;DHT22;5978;51.020;6.764;2023-06-14T01:28:49;18.50;99.90
11838;DHT22;5978;51.020;6.764;2023-06-14T01:31:19;18.40;99.90
11838;DHT22;5978;51.020;6.764;2023-06-14T01:33:49;18.50;99.90
11838;DHT22;5978;51.020;6.764;2023-06-14T01:36:18;18.50;99.90
11838;DHT22;5978;51.020;6.764;2023-06-14T01:38:46;18.40;99.90
11838;DHT22;5978;51.020;6.764;2023-06-14T01:41:12;18.40;99.90
11838;DHT22;5978;51.020;6.764;2023-06-14T01:43:39;18.40;99.90
11838;DHT22;5978;51.020;6.764;2023-06-14T01:46:06;18.40;99.90
11838;DHT22;5978;51.020;6.764;2023-06-14T01:48:34;18.40;99.90
11838;DHT22;5978;51.020;6.764;2023-06-14T01:51:00;18.40;99.90
11838;DHT22;5978;51.020;6.764;2023-06-14T01:53:25;18.30;99.90
11838;DHT22;5978;51.020;6.764;2023-06-14T01:55:51;18.30;99.90
11838;DHT22;5978;51.020;6.764;2023-06-14T01:58:19;18.20;99.90
11838;DHT22;5978;51.020;6.764;2023-06-14T02:00:45;18.20;99.90
11838;DHT22;5978;51.020;6.764;2023-06-14T02:03:11;18.20;99.90
11838;DHT22;5978;51.020;6.764;2023-06-14T02:05:37;18.20;99.90
11838;DHT22;5978;51.020;6.764;2023-06-14T02:08:05;18.30;99.90
11838;DHT22;5978;51.020;6.764;2023-06-14T02:10:31;18.30;99.90
11838;DHT22;5978;51.020;6.764;2023-06-14T02:12:56;18.30;99.90
11838;DHT22;5978;51.020;6.764;2023-06-14T02:15:22;18.20;99.90
11838;DHT22;5978;51.020;6.764;2023-06-14T02:17:49;18.20;99.90
11838;DHT22;5978;51.020;6.764;2023-06-14T02:20:15;18.20;99.90
11838;DHT22;5978;51.020;6.764;2023-06-14T02:22:41;18.10;99.90
11838;DHT22;5978;51.020;6.764;2023-06-14T02:25:07;18.10;99.90
11838;DHT22;5978;51.020;6.764;2023-06-14T02:27:34;18.00;99.90
11838;DHT22;5978;51.020;6.764;2023-06-14T02:30:00;17.90;99.90
11838;DHT22;5978;51.020;6.764;2023-06-14T02:32:26;17.80;99.90
11838;DHT22;5978;51.020;6.764;2023-06-14T02:34:53;17.80;99.90
11838;DHT22;5978;51.020;6.764;2023-06-14T02:37:19;17.90;99.90
11838;DHT22;5978;51.020;6.764;2023-06-14T02:39:45;17.80;99.90
11838;DHT22;5978;51.020;6.764;2023-06-14T02:42:10;17.70;99.90
11838;DHT22;5978;51.020;6.764;2023-06-14T02:44:36;17.70;99.90
11838;DHT22;5978;51.020;6.764;2023-06-14T02:47:03;17.70;99.90
11838;DHT22;5978;51.020;6.764;2023-06-14T02:49:28;17.60;99.90
11838;DHT22;5978;51.020;6.764;2023-06-14T02:51:55;17.60;99.90
11838;DHT22;5978;51.020;6.764;2023-06-14T02:54:21;17.60;99.90
11838;DHT22;5978;51.020;6.764;2023-06-14T02:56:47;17.50;99.90
11838;DHT22;5978;51.020;6.764;2023-06-14T02:59:12;17.50;99.90
11838;DHT22;5978;51.020;6.764;2023-06-14T03:01:40;17.30;99.90
11838;DHT22;5978;51.020;6.764;2023-06-14T03:04:07;17.30;99.90
11838;DHT22;5978;51.020;6.764;2023-06-14T03:06:33;17.20;99.90
11838;DHT22;5978;51.020;6.764;2023-06-14T03:09:00;17.20;99.90
11838;DHT22;5978;51.020;6.764;2023-06-14T03:11:27;17.20;99.90
11838;DHT22;5978;51.020;6.764;2023-06-14T03:13:53;17.20;99.90
11838;DHT22;5978;51.020;6.764;2023-06-14T03:16:19;17.30;99.90
11838;DHT22;5978;51.020;6.764;2023-06-14T03:18:49;17.40;99.90
11838;DHT22;5978;51.020;6.764;2023-06-14T03:21:14;17.30;99.90
11838;DHT22;5978;51.020;6.764;2023-06-14T03:23:42;17.30;99.90
11838;DHT22;5978;51.020;6.764;2023-06-14T03:26:08;17.30;99.90
11838;DHT22;5978;51.020;6.764;2023-06-14T03:28:34;17.20;99.90
11838;DHT22;5978;51.020;6.764;2023-06-14T03:30:59;17.20;99.90
11838;DHT22;5978;51.020;6.764;2023-06-14T03:33:25;17.30;99.90
11838;DHT22;5978;51.020;6.764;2023-06-14T03:35:51;17.30;99.90
11838;DHT22;5978;51.020;6.764;2023-06-14T03:38:17;17.20;99.90
11838;DHT22;5978;51.020;6.764;2023-06-14T03:40:43;17.20;99.90
11838;DHT22;5978;51.020;6.764;2023-06-14T03:43:10;17.30;99.90
11838;DHT22;5978;51.020;6.764;2023-06-14T03:45:35;17.30;99.90
11838;DHT22;5978;51.020;6.764;2023-06-14T03:48:01;17.30;99.90
11838;DHT22;5978;51.020;6.764;2023-06-14T03:50:28;17.30;99.90
11838;DHT22;5978;51.020;6.764;2023-06-14T03:52:53;17.30;99.90
11838;DHT22;5978;51.020;6.764;2023-06-14T03:55:19;17.20;99.90
11838;DHT22;5978;51.020;6.764;2023-06-14T03:57:45;17.20;99.90
11838;DHT22;5978;51.020;6.764;2023-06-14T04:00:11;17.20;99.90
11838;DHT22;5978;51.020;6.764;2023-06-14T04:02:38;17.30;99.90
11838;DHT22;5978;51.020;6.764;2023-06-14T04:05:04;17.30;99.90
11838;DHT22;5978;51.020;6.764;2023-06-14T04:07:34;17.30;99.90
11838;DHT22;5978;51.020;6.764;2023-06-14T04:10:06;17.30;99.90
11838;DHT22;5978;51.020;6.764;2023-06-14T04:12:32;17.40;99.90
11838;DHT22;5978;51.020;6.764;2023-06-14T04:14:58;17.40;99.90
11838;DHT22;5978;51.020;6.764;2023-06-14T04:17:24;17.40;99.90
11838;DHT22;5978;51.020;6.764;2023-06-14T04:19:49;17.40;99.90
11838;DHT22;5978;51.020;6.764;2023-06-14T04:22:16;17.40;99.90
11838;DHT22;5978;51.020;6.764;2023-06-14T04:24:41;17.40;99.90
11838;DHT22;5978;51.020;6.764;2023-06-14T04:27:08;17.40;99.90
11838;DHT22;5978;51.020;6.764;2023-06-14T04:29:33;17.50;99.90
11838;DHT22;5978;51.020;6.764;2023-06-14T04:31:59;17.50;99.90
11838;DHT22;5978;51.020;6.764;2023-06-14T04:34:26;17.60;99.90
11838;DHT22;5978;51.020;6.764;2023-06-14T04:36:55;17.60;99.90
11838;DHT22;5978;51.020;6.764;2023-06-14T04:39:22;17.70;99.90
11838;DHT22;5978;51.020;6.764;2023-06-14T04:41:49;17.80;99.90
11838;DHT22;5978;51.020;6.764;2023-06-14T04:44:19;17.90;99.90
11838;DHT22;5978;51.020;6.764;2023-06-14T04:46:46;18.00;99.90
11838;DHT22;5978;51.020;6.764;2023-06-14T04:49:15;18.10;99.90
11838;DHT22;5978;51.020;6.764;2023-06-14T04:51:41;18.10;99.90
11838;DHT22;5978;51.020;6.764;2023-06-14T04:54:08;18.00;99.90
11838;DHT22;5978;51.020;6.764;2023-06-14T04:56:41;18.10;99.90
11838;DHT22;5978;51.020;6.764;2023-06-14T04:59:11;18.20;99.90
11838;DHT22;5978;51.020;6.764;2023-06-14T05:01:38;18.20;99.90
11838;DHT22;5978;51.020;6.764;2023-06-14T05:04:04;18.10;99.90
11838;DHT22;5978;51.020;6.764;2023-06-14T05:06:30;18.20;99.90
11838;DHT22;5978;51.020;6.764;2023-06-14T05:08:56;18.40;99.90
11838;DHT22;5978;51.020;6.764;2023-06-14T05:11:22;18.40;99.90
11838;DHT22;5978;51.020;6.764;2023-06-14T05:13:50;18.40;99.90
11838;DHT22;5978;51.020;6.764;2023-06-14T05:16:17;18.50;99.90
11838;DHT22;5978;51.020;6.764;2023-06-14T05:18:45;18.50;99.90
11838;DHT22;5978;51.020;6.764;2023-06-14T05:21:13;18.60;99.90
11838;DHT22;5978;51.020;6.764;2023-06-14T05:23:38;18.70;99.90
11838;DHT22;5978;51.020;6.764;2023-06-14T05:26:04;18.70;99.90
11838;DHT22;5978;51.020;6.764;2023-06-14T05:28:32;18.80;99.90
11838;DHT22;5978;51.020;6.764;2023-06-14T05:30:57;18.80;99.90
11838;DHT22;5978;51.020;6.764;2023-06-14T05:33:23;18.90;99.90
11838;DHT22;5978;51.020;6.764;2023-06-14T05:35:49;19.10;99.90
11838;DHT22;5978;51.020;6.764;2023-06-14T05:38:15;19.10;99.90
11838;DHT22;5978;51.020;6.764;2023-06-14T05:40:41;19.30;99.90
11838;DHT22;5978;51.020;6.764;2023-06-14T05:43:07;19.40;99.90
11838;DHT22;5978;51.020;6.764;2023-06-14T05:45:32;19.60;99.90
11838;DHT22;5978;51.020;6.764;2023-06-14T05:47:58;19.70;99.90
11838;DHT22;5978;51.020;6.764;2023-06-14T05:50:24;19.80;99.90
11838;DHT22;5978;51.020;6.764;2023-06-14T05:52:49;20.00;99.90
11838;DHT22;5978;51.020;6.764;2023-06-14T05:55:16;20.00;99.90
11838;DHT22;5978;51.020;6.764;2023-06-14T05:57:42;20.10;99.90
11838;DHT22;5978;51.020;6.764;2023-06-14T06:00:09;20.10;99.90
11838;DHT22;5978;51.020;6.764;2023-06-14T06:02:41;20.20;99.90
11838;DHT22;5978;51.020;6.764;2023-06-14T06:05:09;20.30;99.90
11838;DHT22;5978;51.020;6.764;2023-06-14T06:07:36;20.40;99.90
11838;DHT22;5978;51.020;6.764;2023-06-14T06:10:04;20.50;99.90
11838;DHT22;5978;51.020;6.764;2023-06-14T06:12:30;20.70;99.90
11838;DHT22;5978;51.020;6.764;2023-06-14T06:14:56;20.80;99.90
11838;DHT22;5978;51.020;6.764;2023-06-14T06:17:22;20.90;99.90
11838;DHT22;5978;51.020;6.764;2023-06-14T06:19:47;20.90;99.90
11838;DHT22;5978;51.020;6.764;2023-06-14T06:22:13;21.00;99.90
11838;DHT22;5978;51.020;6.764;2023-06-14T06:24:39;21.10;99.90
11838;DHT22;5978;51.020;6.764;2023-06-14T06:27:05;21.20;99.90
11838;DHT22;5978;51.020;6.764;2023-06-14T06:29:34;21.30;98.10
11838;DHT22;5978;51.020;6.764;2023-06-14T06:32:00;21.40;94.50
11838;DHT22;5978;51.020;6.764;2023-06-14T06:34:27;21.40;94.40
11838;DHT22;5978;51.020;6.764;2023-06-14T06:36:52;21.60;92.80
11838;DHT22;5978;51.020;6.764;2023-06-14T06:39:18;21.70;93.30
11838;DHT22;5978;51.020;6.764;2023-06-14T06:41:44;21.80;91.70
11838;DHT22;5978;51.020;6.764;2023-06-14T06:44:10;21.80;91.70
11838;DHT22;5978;51.020;6.764;2023-06-14T06:46:36;21.80;91.30
11838;DHT22;5978;51.020;6.764;2023-06-14T06:49:06;21.90;92.50
11838;DHT22;5978;51.020;6.764;2023-06-14T06:51:32;22.20;91.40
11838;DHT22;5978;51.020;6.764;2023-06-14T06:53:58;22.40;90.90
11838;DHT22;5978;51.020;6.764;2023-06-14T06:56:24;22.30;85.60
11838;DHT22;5978;51.020;6.764;2023-06-14T06:58:50;22.40;85.40
11838;DHT22;5978;51.020;6.764;2023-06-14T07:01:17;22.60;85.10
11838;DHT22;5978;51.020;6.764;2023-06-14T07:03:43;22.90;87.50
11838;DHT22;5978;51.020;6.764;2023-06-14T07:06:09;23.10;85.00
11838;DHT22;5978;51.020;6.764;2023-06-14T07:08:36;23.20;82.20
11838;DHT22;5978;51.020;6.764;2023-06-14T07:11:01;23.30;80.20
11838;DHT22;5978;51.020;6.764;2023-06-14T07:13:27;23.30;82.70
11838;DHT22;5978;51.020;6.764;2023-06-14T07:15:59;23.40;79.40
11838;DHT22;5978;51.020;6.764;2023-06-14T07:18:25;23.50;77.60
11838;DHT22;5978;51.020;6.764;2023-06-14T07:20:51;23.60;76.90
11838;DHT22;5978;51.020;6.764;2023-06-14T07:23:17;23.70;78.10
11838;DHT22;5978;51.020;6.764;2023-06-14T07:25:43;23.90;77.60
11838;DHT22;5978;51.020;6.764;2023-06-14T07:28:09;23.70;77.60
11838;DHT22;5978;51.020;6.764;2023-06-14T07:30:35;23.80;77.80
11838;DHT22;5978;51.020;6.764;2023-06-14T07:33:01;23.70;74.10
11838;DHT22;5978;51.020;6.764;2023-06-14T07:35:26;23.80;74.70
11838;DHT22;5978;51.020;6.764;2023-06-14T07:37:52;24.00;74.00
11838;DHT22;5978;51.020;6.764;2023-06-14T07:40:18;24.00;71.60
11838;DHT22;5978;51.020;6.764;2023-06-14T07:42:44;24.00;70.70
11838;DHT22;5978;51.020;6.764;2023-06-14T07:45:11;24.00;71.40
11838;DHT22;5978;51.020;6.764;2023-06-14T07:47:37;24.10;68.80
11838;DHT22;5978;51.020;6.764;2023-06-14T07:50:03;24.20;68.90
11838;DHT22;5978;51.020;6.764;2023-06-14T07:52:29;24.30;68.70
11838;DHT22;5978;51.020;6.764;2023-06-14T07:54:55;24.30;69.10
11838;DHT22;5978;51.020;6.764;2023-06-14T07:57:21;24.20;65.80
11838;DHT22;5978;51.020;6.764;2023-06-14T07:59:46;24.40;65.20
11838;DHT22;5978;51.020;6.764;2023-06-14T08:02:13;24.50;65.70
11838;DHT22;5978;51.020;6.764;2023-06-14T08:04:39;24.40;64.50
11838;DHT22;5978;51.020;6.764;2023-06-14T08:07:05;24.60;64.70
11838;DHT22;5978;51.020;6.764;2023-06-14T08:09:31;24.70;63.60
11838;DHT22;5978;51.020;6.764;2023-06-14T08:11:57;24.80;62.40
11838;DHT22;5978;51.020;6.764;2023-06-14T08:14:23;24.70;62.50
11838;DHT22;5978;51.020;6.764;2023-06-14T08:16:48;24.70;60.20
11838;DHT22;5978;51.020;6.764;2023-06-14T08:19:14;24.90;60.30
11838;DHT22;5978;51.020;6.764;2023-06-14T08:21:42;25.00;59.40
11838;DHT22;5978;51.020;6.764;2023-06-14T08:24:10;25.00;56.80
11838;DHT22;5978;51.020;6.764;2023-06-14T08:26:37;24.80;56.90
11838;DHT22;5978;51.020;6.764;2023-06-14T08:29:03;25.00;57.00
11838;DHT22;5978;51.020;6.764;2023-06-14T08:31:29;25.20;54.60
11838;DHT22;5978;51.020;6.764;2023-06-14T08:33:57;25.40;53.50
11838;DHT22;5978;51.020;6.764;2023-06-14T08:36:23;25.30;53.60
11838;DHT22;5978;51.020;6.764;2023-06-14T08:38:49;25.30;52.60
11838;DHT22;5978;51.020;6.764;2023-06-14T08:41:20;25.30;51.40
11838;DHT22;5978;51.020;6.764;2023-06-14T08:43:47;25.10;51.40
11838;DHT22;5978;51.020;6.764;2023-06-14T08:46:14;25.30;51.80
11838;DHT22;5978;51.020;6.764;2023-06-14T08:48:44;25.50;52.50
11838;DHT22;5978;51.020;6.764;2023-06-14T08:51:10;25.60;52.80
11838;DHT22;5978;51.020;6.764;2023-06-14T08:53:38;25.80;51.70
11838;DHT22;5978;51.020;6.764;2023-06-14T08:56:08;26.00;51.40
11838;DHT22;5978;51.020;6.764;2023-06-14T08:58:49;26.00;51.60
11838;DHT22;5978;51.020;6.764;2023-06-14T09:01:15;25.90;50.50
11838;DHT22;5978;51.020;6.764;2023-06-14T09:03:43;26.10;50.80
11838;DHT22;5978;51.020;6.764;2023-06-14T09:06:10;26.20;51.20
11838;DHT22;5978;51.020;6.764;2023-06-14T09:08:46;26.30;51.50
11838;DHT22;5978;51.020;6.764;2023-06-14T09:11:15;26.10;50.50
11838;DHT22;5978;51.020;6.764;2023-06-14T09:13:41;26.30;50.40
11838;DHT22;5978;51.020;6.764;2023-06-14T09:16:07;26.20;50.30
11838;DHT22;5978;51.020;6.764;2023-06-14T09:18:35;26.10;51.10
11838;DHT22;5978;51.020;6.764;2023-06-14T09:21:01;26.10;50.40
11838;DHT22;5978;51.020;6.764;2023-06-14T09:23:27;26.20;50.80
11838;DHT22;5978;51.020;6.764;2023-06-14T09:25:52;26.10;50.50
11838;DHT22;5978;51.020;6.764;2023-06-14T09:28:18;26.10;50.30
11838;DHT22;5978;51.020;6.764;2023-06-14T09:30:48;26.20;50.80
11838;DHT22;5978;51.020;6.764;2023-06-14T09:33:19;26.30;51.10
11838;DHT22;5978;51.020;6.764;2023-06-14T09:35:50;26.10;50.90
11838;DHT22;5978;51.020;6.764;2023-06-14T09:38:16;26.20;51.50
11838;DHT22;5978;51.020;6.764;2023-06-14T09:40:41;26.30;51.90
11838;DHT22;5978;51.020;6.764;2023-06-14T09:43:07;26.40;51.10
11838;DHT22;5978;51.020;6.764;2023-06-14T09:45:37;26.40;51.60
11838;DHT22;5978;51.020;6.764;2023-06-14T09:48:09;26.40;52.60
11838;DHT22;5978;51.020;6.764;2023-06-14T09:50:35;26.40;52.30
11838;DHT22;5978;51.020;6.764;2023-06-14T09:53:11;26.20;51.10
11838;DHT22;5978;51.020;6.764;2023-06-14T09:55:37;26.10;50.90
11838;DHT22;5978;51.020;6.764;2023-06-14T09:58:07;26.30;51.80
11838;DHT22;5978;51.020;6.764;2023-06-14T10:00:33;26.30;51.60
11838;DHT22;5978;51.020;6.764;2023-06-14T10:03:12;26.20;51.80
11838;DHT22;5978;51.020;6.764;2023-06-14T10:05:41;26.20;52.90
11838;DHT22;5978;51.020;6.764;2023-06-14T10:08:14;26.00;52.90
11838;DHT22;5978;51.020;6.764;2023-06-14T10:10:42;25.90;53.20
11838;DHT22;5978;51.020;6.764;2023-06-14T10:13:08;26.10;55.20
11838;DHT22;5978;51.020;6.764;2023-06-14T10:18:28;26.30;54.40
11838;DHT22;5978;51.020;6.764;2023-06-14T10:21:04;26.60;54.40
11838;DHT22;5978;51.020;6.764;2023-06-14T10:23:37;26.70;53.90
11838;DHT22;5978;51.020;6.764;2023-06-14T10:26:03;26.30;53.60
11838;DHT22;5978;51.020;6.764;2023-06-14T10:28:29;26.10;55.00
11838;DHT22;5978;51.020;6.764;2023-06-14T10:33:31;26.50;54.10
11838;DHT22;5978;51.020;6.764;2023-06-14T10:36:23;26.30;52.90
11838;DHT22;5978;51.020;6.764;2023-06-14T10:39:18;26.10;52.70
11838;DHT22;5978;51.020;6.764;2023-06-14T10:41:54;26.30;53.60
11838;DHT22;5978;51.020;6.764;2023-06-14T10:46:47;26.80;52.80
11838;DHT22;5978;51.020;6.764;2023-06-14T10:49:16;27.00;53.40
11838;DHT22;5978;51.020;6.764;2023-06-14T10:51:49;26.50;53.10
11838;DHT22;5978;51.020;6.764;2023-06-14T10:54:16;26.70;53.80
11838;DHT22;5978;51.020;6.764;2023-06-14T10:56:50;26.60;53.70
11838;DHT22;5978;51.020;6.764;2023-06-14T10:59:17;26.50;54.00
11838;DHT22;5978;51.020;6.764;2023-06-14T11:04:11;26.20;55.50
11838;DHT22;5978;51.020;6.764;2023-06-14T11:07:05;26.70;55.50
11838;DHT22;5978;51.020;6.764;2023-06-14T11:10:17;27.10;54.50
11838;DHT22;5978;51.020;6.764;2023-06-14T11:12:39;27.10;54.70
11838;DHT22;5978;51.020;6.764;2023-06-14T11:15:08;27.40;55.50
11838;DHT22;5978;51.020;6.764;2023-06-14T11:17:33;27.40;55.00
11838;DHT22;5978;51.020;6.764;2023-06-14T11:20:12;27.90;55.40
11838;DHT22;5978;51.020;6.764;2023-06-14T11:22:42;28.60;54.20
11838;DHT22;5978;51.020;6.764;2023-06-14T11:25:14;28.90;53.50
11838;DHT22;5978;51.020;6.764;2023-06-14T11:27:42;29.20;52.80
11838;DHT22;5978;51.020;6.764;2023-06-14T11:30:08;29.80;53.80
11838;DHT22;5978;51.020;6.764;2023-06-14T11:32:37;29.80;52.80
11838;DHT22;5978;51.020;6.764;2023-06-14T11:35:03;30.00;52.40
11838;DHT22;5978;51.020;6.764;2023-06-14T11:37:30;30.10;51.80
11838;DHT22;5978;51.020;6.764;2023-06-14T11:39:58;30.30;52.20
11838;DHT22;5978;51.020;6.764;2023-06-14T11:42:26;30.50;51.20
11838;DHT22;5978;51.020;6.764;2023-06-14T11:44:53;31.20;51.40
11838;DHT22;5978;51.020;6.764;2023-06-14T11:47:19;31.90;50.40
11838;DHT22;5978;51.020;6.764;2023-06-14T11:49:45;32.10;49.50
11838;DHT22;5978;51.020;6.764;2023-06-14T11:52:11;32.40;49.80
11838;DHT22;5978;51.020;6.764;2023-06-14T11:54:37;31.70;48.60
11838;DHT22;5978;51.020;6.764;2023-06-14T11:57:03;32.30;48.50
11838;DHT22;5978;51.020;6.764;2023-06-14T11:59:29;31.80;47.10
11838;DHT22;5978;51.020;6.764;2023-06-14T12:01:56;32.00;48.60
11838;DHT22;5978;51.020;6.764;2023-06-14T12:04:27;32.60;48.30
11838;DHT22;5978;51.020;6.764;2023-06-14T12:06:52;33.20;47.50
11838;DHT22;5978;51.020;6.764;2023-06-14T12:09:21;33.60;46.90
11838;DHT22;5978;51.020;6.764;2023-06-14T12:11:49;32.60;46.20
11838;DHT22;5978;51.020;6.764;2023-06-14T12:14:15;33.00;45.90
11838;DHT22;5978;51.020;6.764;2023-06-14T12:16:42;32.90;46.30
11838;DHT22;5978;51.020;6.764;2023-06-14T12:19:17;33.50;46.30
11838;DHT22;5978;51.020;6.764;2023-06-14T12:21:46;33.30;45.90
11838;DHT22;5978;51.020;6.764;2023-06-14T12:24:14;33.40;45.10
11838;DHT22;5978;51.020;6.764;2023-06-14T12:26:41;33.30;44.30
11838;DHT22;5978;51.020;6.764;2023-06-14T12:29:07;32.80;45.60
11838;DHT22;5978;51.020;6.764;2023-06-14T12:31:33;32.30;45.70
11838;DHT22;5978;51.020;6.764;2023-06-14T12:33:59;32.70;46.50
11838;DHT22;5978;51.020;6.764;2023-06-14T12:36:25;33.70;45.90
11838;DHT22;5978;51.020;6.764;2023-06-14T12:38:51;34.10;44.20
11838;DHT22;5978;51.020;6.764;2023-06-14T12:41:21;34.10;44.40
11838;DHT22;5978;51.020;6.764;2023-06-14T12:43:48;35.10;44.80
11838;DHT22;5978;51.020;6.764;2023-06-14T12:46:14;35.00;42.60
11838;DHT22;5978;51.020;6.764;2023-06-14T12:48:39;34.80;42.50
11838;DHT22;5978;51.020;6.764;2023-06-14T12:51:05;34.20;42.00
11838;DHT22;5978;51.020;6.764;2023-06-14T12:53:31;35.30;42.80
11838;DHT22;5978;51.020;6.764;2023-06-14T12:55:56;35.80;40.90
11838;DHT22;5978;51.020;6.764;2023-06-14T12:58:22;34.90;40.50
11838;DHT22;5978;51.020;6.764;2023-06-14T13:00:49;34.40;40.60
11838;DHT22;5978;51.020;6.764;2023-06-14T13:03:15;34.50;40.90
11838;DHT22;5978;51.020;6.764;2023-06-14T13:05:40;35.30;41.00
11838;DHT22;5978;51.020;6.764;2023-06-14T13:08:07;35.00;40.80
11838;DHT22;5978;51.020;6.764;2023-06-14T13:10:34;35.10;40.80
11838;DHT22;5978;51.020;6.764;2023-06-14T13:13:00;35.00;39.80
11838;DHT22;5978;51.020;6.764;2023-06-14T13:15:26;36.00;39.50
11838;DHT22;5978;51.020;6.764;2023-06-14T13:17:52;36.10;40.50
11838;DHT22;5978;51.020;6.764;2023-06-14T13:20:18;36.30;40.20
11838;DHT22;5978;51.020;6.764;2023-06-14T13:22:44;36.70;38.60
11838;DHT22;5978;51.020;6.764;2023-06-14T13:25:09;36.50;38.50
11838;DHT22;5978;51.020;6.764;2023-06-14T13:27:35;36.30;37.70
11838;DHT22;5978;51.020;6.764;2023-06-14T13:30:02;36.70;37.40
11838;DHT22;5978;51.020;6.764;2023-06-14T13:32:28;37.20;37.10
11838;DHT22;5978;51.020;6.764;2023-06-14T13:34:54;37.00;36.10
11838;DHT22;5978;51.020;6.764;2023-06-14T13:37:20;37.10;37.10
11838;DHT22;5978;51.020;6.764;2023-06-14T13:39:46;37.00;37.30
11838;DHT22;5978;51.020;6.764;2023-06-14T13:42:11;36.90;38.50
11838;DHT22;5978;51.020;6.764;2023-06-14T13:44:38;37.80;37.70
11838;DHT22;5978;51.020;6.764;2023-06-14T13:47:05;38.40;36.70
11838;DHT22;5978;51.020;6.764;2023-06-14T13:49:31;37.30;37.00
11838;DHT22;5978;51.020;6.764;2023-06-14T13:51:56;36.60;37.60
11838;DHT22;5978;51.020;6.764;2023-06-14T13:54:22;37.30;37.50
11838;DHT22;5978;51.020;6.764;2023-06-14T13:56:48;38.00;36.70
11838;DHT22;5978;51.020;6.764;2023-06-14T13:59:14;39.90;36.80
11838;DHT22;5978;51.020;6.764;2023-06-14T14:01:40;40.20;35.30
11838;DHT22;5978;51.020;6.764;2023-06-14T14:04:06;37.90;35.60
11838;DHT22;5978;51.020;6.764;2023-06-14T14:06:31;36.20;37.60
11838;DHT22;5978;51.020;6.764;2023-06-14T14:08:57;36.80;38.10
11838;DHT22;5978;51.020;6.764;2023-06-14T14:11:23;36.60;37.80
11838;DHT22;5978;51.020;6.764;2023-06-14T14:13:49;34.90;38.30
11838;DHT22;5978;51.020;6.764;2023-06-14T14:16:15;33.90;39.90
11838;DHT22;5978;51.020;6.764;2023-06-14T14:18:41;34.40;40.80
11838;DHT22;5978;51.020;6.764;2023-06-14T14:21:07;35.80;40.10
11838;DHT22;5978;51.020;6.764;2023-06-14T14:23:32;35.10;40.10
11838;DHT22;5978;51.020;6.764;2023-06-14T14:25:58;33.60;40.10
11838;DHT22;5978;51.020;6.764;2023-06-14T14:28:26;32.50;41.00
11838;DHT22;5978;51.020;6.764;2023-06-14T14:30:52;31.40;42.00
11838;DHT22;5978;51.020;6.764;2023-06-14T14:33:19;30.90;43.30
11838;DHT22;5978;51.020;6.764;2023-06-14T14:35:45;31.10;44.20
11838;DHT22;5978;51.020;6.764;2023-06-14T14:38:14;31.80;43.50
11838;DHT22;5978;51.020;6.764;2023-06-14T14:40:42;33.20;42.40
11838;DHT22;5978;51.020;6.764;2023-06-14T14:43:08;34.70;40.80
11838;DHT22;5978;51.020;6.764;2023-06-14T14:45:33;35.70;39.90
11838;DHT22;5978;51.020;6.764;2023-06-14T14:48:00;36.80;39.70
11838;DHT22;5978;51.020;6.764;2023-06-14T14:50:26;38.00;39.00
11838;DHT22;5978;51.020;6.764;2023-06-14T14:52:52;38.80;38.00
11838;DHT22;5978;51.020;6.764;2023-06-14T14:55:18;38.40;37.00
11838;DHT22;5978;51.020;6.764;2023-06-14T14:57:45;39.10;37.20
11838;DHT22;5978;51.020;6.764;2023-06-14T15:00:11;37.40;36.50
11838;DHT22;5978;51.020;6.764;2023-06-14T15:02:37;37.40;37.30
11838;DHT22;5978;51.020;6.764;2023-06-14T15:05:03;34.70;37.70
11838;DHT22;5978;51.020;6.764;2023-06-14T15:07:30;33.80;39.60
11838;DHT22;5978;51.020;6.764;2023-06-14T15:09:56;33.50;39.90
11838;DHT22;5978;51.020;6.764;2023-06-14T15:12:22;34.50;39.60
11838;DHT22;5978;51.020;6.764;2023-06-14T15:14:52;35.80;39.00
11838;DHT22;5978;51.020;6.764;2023-06-14T15:17:19;35.60;38.90
11838;DHT22;5978;51.020;6.764;2023-06-14T15:19:46;35.40;39.10
11838;DHT22;5978;51.020;6.764;2023-06-14T15:22:13;35.90;38.50
11838;DHT22;5978;51.020;6.764;2023-06-14T15:24:41;36.10;37.70
11838;DHT22;5978;51.020;6.764;2023-06-14T15:27:07;37.00;37.70
11838;DHT22;5978;51.020;6.764;2023-06-14T15:29:34;37.00;37.50
11838;DHT22;5978;51.020;6.764;2023-06-14T15:32:01;37.80;36.80
11838;DHT22;5978;51.020;6.764;2023-06-14T15:34:26;37.60;36.70
11838;DHT22;5978;51.020;6.764;2023-06-14T15:36:52;37.40;36.10
11838;DHT22;5978;51.020;6.764;2023-06-14T15:39:18;37.10;35.50
11838;DHT22;5978;51.020;6.764;2023-06-14T15:41:43;37.30;36.50
11838;DHT22;5978;51.020;6.764;2023-06-14T15:44:09;36.10;35.50
11838;DHT22;5978;51.020;6.764;2023-06-14T15:46:36;34.70;36.20
11838;DHT22;5978;51.020;6.764;2023-06-14T15:49:08;33.40;37.30
11838;DHT22;5978;51.020;6.764;2023-06-14T15:51:34;32.10;39.10
11838;DHT22;5978;51.020;6.764;2023-06-14T15:54:00;31.20;40.70
11838;DHT22;5978;51.020;6.764;2023-06-14T15:56:26;30.80;41.30
11838;DHT22;5978;51.020;6.764;2023-06-14T15:58:51;30.10;42.30